sensor_id;sensor_type;location;lat;lon;timestamp;temperature;humidity
53904;DHT22;39812;52.430;16.936;2022-08-18T00:01:07;22.60;97.90
53904;DHT22;39812;52.430;16.936;2022-08-18T00:03:33;22.60;98.30
53904;DHT22;39812;52.430;16.936;2022-08-18T00:05:58;22.50;98.80
53904;DHT22;39812;52.430;16.936;2022-08-18T00:08:24;22.50;99.00
53904;DHT22;39812;52.430;16.936;2022-08-18T00:10:49;22.40;99.40
53904;DHT22;39812;52.430;16.936;2022-08-18T00:13:15;22.40;99.90
53904;DHT22;39812;52.430;16.936;2022-08-18T00:15:40;22.30;99.90
53904;DHT22;39812;52.430;16.936;2022-08-18T00:18:06;22.30;99.90
53904;DHT22;39812;52.430;16.936;2022-08-18T00:20:31;22.30;99.90
53904;DHT22;39812;52.430;16.936;2022-08-18T00:22:57;22.20;99.90
53904;DHT22;39812;52.430;16.936;2022-08-18T00:25:23;22.30;99.90
53904;DHT22;39812;52.430;16.936;2022-08-18T00:27:49;22.30;99.90
53904;DHT22;39812;52.430;16.936;2022-08-18T00:30:17;22.10;99.90
53904;DHT22;39812;52.430;16.936;2022-08-18T00:32:47;22.00;99.90
53904;DHT22;39812;52.430;16.936;2022-08-18T00:35:18;22.00;99.90
53904;DHT22;39812;52.430;16.936;2022-08-18T00:37:46;21.90;99.90
53904;DHT22;39812;52.430;16.936;2022-08-18T00:40:17;21.90;99.90
53904;DHT22;39812;52.430;16.936;2022-08-18T00:42:50;21.90;99.90
53904;DHT22;39812;52.430;16.936;2022-08-18T00:45:19;21.90;99.90
53904;DHT22;39812;52.430;16.936;2022-08-18T00:47:45;21.80;99.90
53904;DHT22;39812;52.430;16.936;2022-08-18T00:50:13;21.80;99.90
53904;DHT22;39812;52.430;16.936;2022-08-18T00:52:40;21.80;99.90
53904;DHT22;39812;52.430;16.936;2022-08-18T00:55:07;21.70;99.90
53904;DHT22;39812;52.430;16.936;2022-08-18T00:57:32;21.70;99.90
53904;DHT22;39812;52.430;16.936;2022-08-18T01:00:03;21.70;99.90
53904;DHT22;39812;52.430;16.936;2022-08-18T01:02:42;21.70;99.90
53904;DHT22;39812;52.430;16.936;2022-08-18T01:07:45;21.90;99.90
53904;DHT22;39812;52.430;16.936;2022-08-18T01:10:16;21.90;99.90
53904;DHT22;39812;52.430;16.936;2022-08-18T01:12:51;21.90;99.90
53904;DHT22;39812;52.430;16.936;2022-08-18T01:15:19;21.80;99.90
53904;DHT22;39812;52.430;16.936;2022-08-18T01:17:45;21.90;99.90
53904;DHT22;39812;52.430;16.936;2022-08-18T01:20:35;21.90;99.90
53904;DHT22;39812;52.430;16.936;2022-08-18T01:23:22;21.80;99.90
53904;DHT22;39812;52.430;16.936;2022-08-18T01:25:48;21.90;99.90
53904;DHT22;39812;52.430;16.936;2022-08-18T01:28:29;21.90;99.90
53904;DHT22;39812;52.430;16.936;2022-08-18T01:30:57;21.80;99.90
53904;DHT22;39812;52.430;16.936;2022-08-18T01:33:42;21.80;99.90
53904;DHT22;39812;52.430;16.936;2022-08-18T01:36:19;21.80;99.90
53904;DHT22;39812;52.430;16.936;2022-08-18T01:38:51;21.80;99.90
53904;DHT22;39812;52.430;16.936;2022-08-18T01:41:18;21.80;99.90
53904;DHT22;39812;52.430;16.936;2022-08-18T01:43:45;21.80;99.90
53904;DHT22;39812;52.430;16.936;2022-08-18T01:46:11;21.70;99.90
53904;DHT22;39812;52.430;16.936;2022-08-18T01:48:38;21.60;99.90
53904;DHT22;39812;52.430;16.936;2022-08-18T01:51:06;21.60;99.90
53904;DHT22;39812;52.430;16.936;2022-08-18T01:53:32;21.50;99.90
53904;DHT22;39812;52.430;16.936;2022-08-18T01:55:58;21.50;99.90
53904;DHT22;39812;52.430;16.936;2022-08-18T01:58:23;21.40;99.90
53904;DHT22;39812;52.430;16.936;2022-08-18T02:00:56;21.30;99.90
53904;DHT22;39812;52.430;16.936;2022-08-18T02:03:24;21.30;99.90
53904;DHT22;39812;52.430;16.936;2022-08-18T02:05:54;21.30;99.90
53904;DHT22;39812;52.430;16.936;2022-08-18T02:08:20;21.30;99.90
53904;DHT22;39812;52.430;16.936;2022-08-18T02:10:46;21.20;99.90
53904;DHT22;39812;52.430;16.936;2022-08-18T02:13:12;21.20;99.90
53904;DHT22;39812;52.430;16.936;2022-08-18T02:15:38;21.10;99.90
53904;DHT22;39812;52.430;16.936;2022-08-18T02:18:03;21.10;99.90
53904;DHT22;39812;52.430;16.936;2022-08-18T02:20:29;21.10;99.90
53904;DHT22;39812;52.430;16.936;2022-08-18T02:22:55;21.00;99.90
53904;DHT22;39812;52.430;16.936;2022-08-18T02:25:22;21.00;99.90
53904;DHT22;39812;52.430;16.936;2022-08-18T02:27:48;21.00;99.90
53904;DHT22;39812;52.430;16.936;2022-08-18T02:30:15;21.00;99.90
53904;DHT22;39812;52.430;16.936;2022-08-18T02:32:41;21.00;99.90
53904;DHT22;39812;52.430;16.936;2022-08-18T02:35:07;21.00;99.90
53904;DHT22;39812;52.430;16.936;2022-08-18T02:37:34;21.00;99.90
53904;DHT22;39812;52.430;16.936;2022-08-18T02:39:59;21.10;99.90
53904;DHT22;39812;52.430;16.936;2022-08-18T02:42:25;21.00;99.90
53904;DHT22;39812;52.430;16.936;2022-08-18T02:44:52;21.10;99.90
53904;DHT22;39812;52.430;16.936;2022-08-18T02:47:21;21.10;99.90
53904;DHT22;39812;52.430;16.936;2022-08-18T02:49:47;21.00;99.90
53904;DHT22;39812;52.430;16.936;2022-08-18T02:52:12;21.00;99.90
53904;DHT22;39812;52.430;16.936;2022-08-18T02:54:38;21.00;99.90
53904;DHT22;39812;52.430;16.936;2022-08-18T02:57:08;21.00;99.90
53904;DHT22;39812;52.430;16.936;2022-08-18T02:59:38;20.90;99.90
53904;DHT22;39812;52.430;16.936;2022-08-18T03:02:06;20.90;99.90
53904;DHT22;39812;52.430;16.936;2022-08-18T03:04:32;20.90;99.90
53904;DHT22;39812;52.430;16.936;2022-08-18T03:07:01;20.90;99.90
53904;DHT22;39812;52.430;16.936;2022-08-18T03:09:29;20.80;99.90
53904;DHT22;39812;52.430;16.936;2022-08-18T03:11:55;20.80;99.90
53904;DHT22;39812;52.430;16.936;2022-08-18T03:14:21;20.70;99.90
53904;DHT22;39812;52.430;16.936;2022-08-18T03:16:47;20.60;99.90
53904;DHT22;39812;52.430;16.936;2022-08-18T03:19:14;20.60;99.90
53904;DHT22;39812;52.430;16.936;2022-08-18T03:21:45;20.70;99.90
53904;DHT22;39812;52.430;16.936;2022-08-18T03:24:11;20.70;99.90
53904;DHT22;39812;52.430;16.936;2022-08-18T03:26:43;20.70;99.90
53904;DHT22;39812;52.430;16.936;2022-08-18T03:29:09;20.80;99.90
53904;DHT22;39812;52.430;16.936;2022-08-18T03:31:35;20.80;99.90
53904;DHT22;39812;52.430;16.936;2022-08-18T03:34:03;20.80;99.90
53904;DHT22;39812;52.430;16.936;2022-08-18T03:36:31;20.70;99.90
53904;DHT22;39812;52.430;16.936;2022-08-18T03:39:00;20.60;99.90
53904;DHT22;39812;52.430;16.936;2022-08-18T03:41:28;20.60;99.90
53904;DHT22;39812;52.430;16.936;2022-08-18T03:43:53;20.60;99.90
53904;DHT22;39812;52.430;16.936;2022-08-18T03:46:20;20.60;99.90
53904;DHT22;39812;52.430;16.936;2022-08-18T03:48:46;20.60;99.90
53904;DHT22;39812;52.430;16.936;2022-08-18T03:51:18;20.70;99.90
53904;DHT22;39812;52.430;16.936;2022-08-18T03:53:47;20.70;99.90
53904;DHT22;39812;52.430;16.936;2022-08-18T03:56:16;20.70;99.90
53904;DHT22;39812;52.430;16.936;2022-08-18T03:58:43;20.70;99.90
53904;DHT22;39812;52.430;16.936;2022-08-18T04:01:11;20.80;99.90
53904;DHT22;39812;52.430;16.936;2022-08-18T04:03:43;20.90;99.90
53904;DHT22;39812;52.430;16.936;2022-08-18T04:06:22;20.90;99.90
53904;DHT22;39812;52.430;16.936;2022-08-18T04:08:51;20.90;99.90
53904;DHT22;39812;52.430;16.936;2022-08-18T04:11:17;20.90;99.90
53904;DHT22;39812;52.430;16.936;2022-08-18T04:13:43;20.90;99.90
53904;DHT22;39812;52.430;16.936;2022-08-18T04:16:08;20.90;99.90
53904;DHT22;39812;52.430;16.936;2022-08-18T04:18:34;21.00;99.90
53904;DHT22;39812;52.430;16.936;2022-08-18T04:21:02;21.00;99.90
53904;DHT22;39812;52.430;16.936;2022-08-18T04:23:28;21.00;99.90
53904;DHT22;39812;52.430;16.936;2022-08-18T04:25:57;21.10;99.90
53904;DHT22;39812;52.430;16.936;2022-08-18T04:28:24;21.10;99.90
53904;DHT22;39812;52.430;16.936;2022-08-18T04:30:49;21.10;99.90
53904;DHT22;39812;52.430;16.936;2022-08-18T04:33:15;21.10;99.90
53904;DHT22;39812;52.430;16.936;2022-08-18T04:35:40;21.20;99.90
53904;DHT22;39812;52.430;16.936;2022-08-18T04:38:06;21.20;99.90
53904;DHT22;39812;52.430;16.936;2022-08-18T04:40:32;21.20;99.90
53904;DHT22;39812;52.430;16.936;2022-08-18T04:42:58;21.30;99.90
53904;DHT22;39812;52.430;16.936;2022-08-18T04:45:25;21.40;99.90
53904;DHT22;39812;52.430;16.936;2022-08-18T04:47:51;21.40;99.90
53904;DHT22;39812;52.430;16.936;2022-08-18T04:50:17;21.50;99.90
53904;DHT22;39812;52.430;16.936;2022-08-18T04:52:43;21.60;99.90
53904;DHT22;39812;52.430;16.936;2022-08-18T04:55:27;21.70;99.90
53904;DHT22;39812;52.430;16.936;2022-08-18T04:57:54;21.80;99.90
53904;DHT22;39812;52.430;16.936;2022-08-18T05:00:19;21.90;99.90
53904;DHT22;39812;52.430;16.936;2022-08-18T05:02:45;22.00;99.90
53904;DHT22;39812;52.430;16.936;2022-08-18T05:05:10;22.00;99.90
53904;DHT22;39812;52.430;16.936;2022-08-18T05:07:42;22.00;99.90
53904;DHT22;39812;52.430;16.936;2022-08-18T05:10:09;22.10;99.90
53904;DHT22;39812;52.430;16.936;2022-08-18T05:12:34;22.10;99.90
53904;DHT22;39812;52.430;16.936;2022-08-18T05:15:00;22.20;99.90
53904;DHT22;39812;52.430;16.936;2022-08-18T05:17:26;22.20;99.90
53904;DHT22;39812;52.430;16.936;2022-08-18T05:19:52;22.20;99.90
53904;DHT22;39812;52.430;16.936;2022-08-18T05:22:18;22.20;99.90
53904;DHT22;39812;52.430;16.936;2022-08-18T05:24:45;22.30;99.90
53904;DHT22;39812;52.430;16.936;2022-08-18T05:27:11;22.40;99.90
53904;DHT22;39812;52.430;16.936;2022-08-18T05:29:37;22.30;99.90
53904;DHT22;39812;52.430;16.936;2022-08-18T05:32:03;22.30;99.90
53904;DHT22;39812;52.430;16.936;2022-08-18T05:34:32;22.40;99.90
53904;DHT22;39812;52.430;16.936;2022-08-18T05:37:18;22.40;99.90
53904;DHT22;39812;52.430;16.936;2022-08-18T05:40:03;22.50;99.90
53904;DHT22;39812;52.430;16.936;2022-08-18T05:42:35;22.60;99.90
53904;DHT22;39812;52.430;16.936;2022-08-18T05:45:02;22.70;99.90
53904;DHT22;39812;52.430;16.936;2022-08-18T05:47:30;22.80;99.90
53904;DHT22;39812;52.430;16.936;2022-08-18T05:50:02;22.90;99.90
53904;DHT22;39812;52.430;16.936;2022-08-18T05:52:37;23.00;99.90
53904;DHT22;39812;52.430;16.936;2022-08-18T05:55:08;23.00;99.90
53904;DHT22;39812;52.430;16.936;2022-08-18T05:57:58;23.10;99.90
53904;DHT22;39812;52.430;16.936;2022-08-18T06:00:26;23.20;99.90
53904;DHT22;39812;52.430;16.936;2022-08-18T06:03:03;23.30;99.90
53904;DHT22;39812;52.430;16.936;2022-08-18T06:05:34;23.40;99.90
53904;DHT22;39812;52.430;16.936;2022-08-18T06:08:11;23.60;99.90
53904;DHT22;39812;52.430;16.936;2022-08-18T06:10:40;23.70;99.90
53904;DHT22;39812;52.430;16.936;2022-08-18T06:13:10;23.80;99.90
53904;DHT22;39812;52.430;16.936;2022-08-18T06:15:46;23.90;99.90
53904;DHT22;39812;52.430;16.936;2022-08-18T06:27:07;24.50;99.90
53904;DHT22;39812;52.430;16.936;2022-08-18T06:29:55;24.60;99.90
53904;DHT22;39812;52.430;16.936;2022-08-18T06:32:48;24.80;99.90
53904;DHT22;39812;52.430;16.936;2022-08-18T06:38:24;25.10;99.90
53904;DHT22;39812;52.430;16.936;2022-08-18T06:43:59;25.10;99.90
53904;DHT22;39812;52.430;16.936;2022-08-18T06:46:39;25.00;99.90
53904;DHT22;39812;52.430;16.936;2022-08-18T06:49:16;25.10;99.90
53904;DHT22;39812;52.430;16.936;2022-08-18T06:51:43;25.20;99.90
53904;DHT22;39812;52.430;16.936;2022-08-18T06:56:50;25.40;99.90
53904;DHT22;39812;52.430;16.936;2022-08-18T06:59:29;25.40;99.90
53904;DHT22;39812;52.430;16.936;2022-08-18T07:02:01;25.50;99.90
53904;DHT22;39812;52.430;16.936;2022-08-18T07:04:42;25.60;99.90
53904;DHT22;39812;52.430;16.936;2022-08-18T07:07:18;25.70;99.90
53904;DHT22;39812;52.430;16.936;2022-08-18T07:09:45;25.70;99.90
53904;DHT22;39812;52.430;16.936;2022-08-18T07:12:20;25.80;99.90
53904;DHT22;39812;52.430;16.936;2022-08-18T07:14:58;25.80;99.90
53904;DHT22;39812;52.430;16.936;2022-08-18T07:17:29;26.00;99.90
53904;DHT22;39812;52.430;16.936;2022-08-18T07:20:22;26.20;99.90
53904;DHT22;39812;52.430;16.936;2022-08-18T07:22:53;26.30;99.90
53904;DHT22;39812;52.430;16.936;2022-08-18T07:25:24;26.40;99.90
53904;DHT22;39812;52.430;16.936;2022-08-18T07:27:50;26.60;99.90
53904;DHT22;39812;52.430;16.936;2022-08-18T07:35:39;27.20;99.90
53904;DHT22;39812;52.430;16.936;2022-08-18T07:38:29;27.30;99.90
53904;DHT22;39812;52.430;16.936;2022-08-18T07:41:00;27.40;99.90
53904;DHT22;39812;52.430;16.936;2022-08-18T07:46:54;27.70;99.90
53904;DHT22;39812;52.430;16.936;2022-08-18T07:49:23;27.80;99.90
53904;DHT22;39812;52.430;16.936;2022-08-18T07:51:56;27.90;99.90
53904;DHT22;39812;52.430;16.936;2022-08-18T07:54:46;28.00;99.90
53904;DHT22;39812;52.430;16.936;2022-08-18T07:57:24;28.20;99.90
53904;DHT22;39812;52.430;16.936;2022-08-18T08:00:00;28.40;99.90
53904;DHT22;39812;52.430;16.936;2022-08-18T08:11:08;29.10;98.90
53904;DHT22;39812;52.430;16.936;2022-08-18T08:14:17;29.30;98.60
53904;DHT22;39812;52.430;16.936;2022-08-18T08:16:59;29.40;98.40
53904;DHT22;39812;52.430;16.936;2022-08-18T08:22:50;29.50;97.60
53904;DHT22;39812;52.430;16.936;2022-08-18T08:25:17;29.70;97.30
53904;DHT22;39812;52.430;16.936;2022-08-18T08:30:52;30.00;97.00
53904;DHT22;39812;52.430;16.936;2022-08-18T08:33:29;30.20;96.10
53904;DHT22;39812;52.430;16.936;2022-08-18T08:36:22;30.30;95.90
53904;DHT22;39812;52.430;16.936;2022-08-18T08:38:54;30.40;95.60
53904;DHT22;39812;52.430;16.936;2022-08-18T08:41:31;30.40;95.20
53904;DHT22;39812;52.430;16.936;2022-08-18T08:44:29;30.60;94.80
53904;DHT22;39812;52.430;16.936;2022-08-18T08:47:17;30.90;94.60
53904;DHT22;39812;52.430;16.936;2022-08-18T08:49:49;31.10;94.00
53904;DHT22;39812;52.430;16.936;2022-08-18T08:55:21;31.30;94.00
53904;DHT22;39812;52.430;16.936;2022-08-18T09:00:41;31.60;93.00
53904;DHT22;39812;52.430;16.936;2022-08-18T09:08:57;31.70;92.30
53904;DHT22;39812;52.430;16.936;2022-08-18T09:15:23;32.10;91.30
53904;DHT22;39812;52.430;16.936;2022-08-18T09:20:28;33.00;89.50
53904;DHT22;39812;52.430;16.936;2022-08-18T09:23:17;33.10;88.10
53904;DHT22;39812;52.430;16.936;2022-08-18T09:25:47;33.10;88.20
53904;DHT22;39812;52.430;16.936;2022-08-18T09:28:20;33.40;88.00
53904;DHT22;39812;52.430;16.936;2022-08-18T09:31:14;33.80;85.80
53904;DHT22;39812;52.430;16.936;2022-08-18T09:36:36;33.90;83.10
53904;DHT22;39812;52.430;16.936;2022-08-18T09:39:33;33.40;82.10
53904;DHT22;39812;52.430;16.936;2022-08-18T09:42:38;33.30;82.30
53904;DHT22;39812;52.430;16.936;2022-08-18T09:45:08;33.60;82.40
53904;DHT22;39812;52.430;16.936;2022-08-18T09:55:09;34.10;79.50
53904;DHT22;39812;52.430;16.936;2022-08-18T10:00:45;34.50;78.30
53904;DHT22;39812;52.430;16.936;2022-08-18T10:03:30;34.40;78.40
53904;DHT22;39812;52.430;16.936;2022-08-18T10:06:04;34.40;78.00
53904;DHT22;39812;52.430;16.936;2022-08-18T10:08:44;34.70;75.90
53904;DHT22;39812;52.430;16.936;2022-08-18T10:11:39;34.80;75.30
53904;DHT22;39812;52.430;16.936;2022-08-18T10:17:28;34.70;74.90
53904;DHT22;39812;52.430;16.936;2022-08-18T10:22:43;34.70;73.90
53904;DHT22;39812;52.430;16.936;2022-08-18T10:25:11;34.80;74.50
53904;DHT22;39812;52.430;16.936;2022-08-18T10:32:55;34.50;73.90
53904;DHT22;39812;52.430;16.936;2022-08-18T10:38:23;34.70;72.00
53904;DHT22;39812;52.430;16.936;2022-08-18T10:41:04;34.90;71.10
53904;DHT22;39812;52.430;16.936;2022-08-18T10:43:46;35.10;71.30
53904;DHT22;39812;52.430;16.936;2022-08-18T10:46:19;35.00;71.50
53904;DHT22;39812;52.430;16.936;2022-08-18T10:49:19;34.80;71.10
53904;DHT22;39812;52.430;16.936;2022-08-18T10:54:35;34.90;70.40
53904;DHT22;39812;52.430;16.936;2022-08-18T10:57:12;35.10;70.40
53904;DHT22;39812;52.430;16.936;2022-08-18T11:00:01;35.00;69.40
53904;DHT22;39812;52.430;16.936;2022-08-18T11:05:33;34.60;70.60
53904;DHT22;39812;52.430;16.936;2022-08-18T11:08:13;34.70;69.90
53904;DHT22;39812;52.430;16.936;2022-08-18T11:11:08;34.60;70.00
53904;DHT22;39812;52.430;16.936;2022-08-18T11:16:49;34.60;70.20
53904;DHT22;39812;52.430;16.936;2022-08-18T11:19:19;34.70;69.90
53904;DHT22;39812;52.430;16.936;2022-08-18T11:21:52;34.90;69.50
53904;DHT22;39812;52.430;16.936;2022-08-18T11:24:24;35.20;69.50
53904;DHT22;39812;52.430;16.936;2022-08-18T11:26:56;35.60;68.50
53904;DHT22;39812;52.430;16.936;2022-08-18T11:29:37;36.00;67.70
53904;DHT22;39812;52.430;16.936;2022-08-18T11:32:23;36.50;66.90
53904;DHT22;39812;52.430;16.936;2022-08-18T11:35:10;36.90;65.80
53904;DHT22;39812;52.430;16.936;2022-08-18T11:40:33;38.30;62.90
53904;DHT22;39812;52.430;16.936;2022-08-18T11:45:53;39.30;61.10
53904;DHT22;39812;52.430;16.936;2022-08-18T11:58:45;43.60;51.70
53904;DHT22;39812;52.430;16.936;2022-08-18T12:06:35;45.60;47.80
53904;DHT22;39812;52.430;16.936;2022-08-18T12:09:06;45.80;47.10
53904;DHT22;39812;52.430;16.936;2022-08-18T12:11:49;44.10;47.70
53904;DHT22;39812;52.430;16.936;2022-08-18T12:14:19;43.50;48.60
53904;DHT22;39812;52.430;16.936;2022-08-18T12:16:46;44.70;48.30
53904;DHT22;39812;52.430;16.936;2022-08-18T12:19:13;45.60;46.60
53904;DHT22;39812;52.430;16.936;2022-08-18T12:21:43;46.10;46.60
53904;DHT22;39812;52.430;16.936;2022-08-18T12:24:18;47.30;45.40
53904;DHT22;39812;52.430;16.936;2022-08-18T12:26:45;48.60;45.20
53904;DHT22;39812;52.430;16.936;2022-08-18T12:29:10;48.50;43.40
53904;DHT22;39812;52.430;16.936;2022-08-18T12:31:36;48.60;43.00
53904;DHT22;39812;52.430;16.936;2022-08-18T12:34:01;49.60;42.20
53904;DHT22;39812;52.430;16.936;2022-08-18T12:36:28;50.00;41.90
53904;DHT22;39812;52.430;16.936;2022-08-18T12:38:54;50.90;41.00
53904;DHT22;39812;52.430;16.936;2022-08-18T12:41:20;50.30;41.00
53904;DHT22;39812;52.430;16.936;2022-08-18T12:43:45;50.30;40.00
53904;DHT22;39812;52.430;16.936;2022-08-18T12:46:12;50.40;39.80
53904;DHT22;39812;52.430;16.936;2022-08-18T12:48:37;51.10;40.00
53904;DHT22;39812;52.430;16.936;2022-08-18T12:51:04;50.50;39.20
53904;DHT22;39812;52.430;16.936;2022-08-18T12:53:29;51.30;38.80
53904;DHT22;39812;52.430;16.936;2022-08-18T12:55:55;50.40;38.90
53904;DHT22;39812;52.430;16.936;2022-08-18T12:58:21;51.40;39.00
53904;DHT22;39812;52.430;16.936;2022-08-18T13:00:46;52.50;38.30
53904;DHT22;39812;52.430;16.936;2022-08-18T13:03:12;52.30;37.80
53904;DHT22;39812;52.430;16.936;2022-08-18T13:05:38;50.50;38.50
53904;DHT22;39812;52.430;16.936;2022-08-18T13:08:05;50.80;38.60
53904;DHT22;39812;52.430;16.936;2022-08-18T13:10:34;50.60;38.30
53904;DHT22;39812;52.430;16.936;2022-08-18T13:12:59;50.60;38.80
53904;DHT22;39812;52.430;16.936;2022-08-18T13:15:25;51.20;38.30
53904;DHT22;39812;52.430;16.936;2022-08-18T13:17:53;51.00;37.90
53904;DHT22;39812;52.430;16.936;2022-08-18T13:20:18;50.70;38.20
53904;DHT22;39812;52.430;16.936;2022-08-18T13:22:45;51.10;38.30
53904;DHT22;39812;52.430;16.936;2022-08-18T13:25:16;50.20;37.60
53904;DHT22;39812;52.430;16.936;2022-08-18T13:27:42;48.30;38.90
53904;DHT22;39812;52.430;16.936;2022-08-18T13:30:11;47.00;39.40
53904;DHT22;39812;52.430;16.936;2022-08-18T13:32:37;49.90;38.20
53904;DHT22;39812;52.430;16.936;2022-08-18T13:35:03;51.70;36.70
53904;DHT22;39812;52.430;16.936;2022-08-18T13:37:29;51.50;35.50
53904;DHT22;39812;52.430;16.936;2022-08-18T13:39:57;48.40;37.10
53904;DHT22;39812;52.430;16.936;2022-08-18T13:42:22;50.10;37.50
53904;DHT22;39812;52.430;16.936;2022-08-18T13:44:48;50.80;37.00
53904;DHT22;39812;52.430;16.936;2022-08-18T13:47:14;51.50;36.80
53904;DHT22;39812;52.430;16.936;2022-08-18T13:49:39;52.00;36.70
53904;DHT22;39812;52.430;16.936;2022-08-18T13:52:05;52.00;36.70
53904;DHT22;39812;52.430;16.936;2022-08-18T13:54:32;52.00;36.80
53904;DHT22;39812;52.430;16.936;2022-08-18T13:56:59;51.90;36.40
53904;DHT22;39812;52.430;16.936;2022-08-18T13:59:25;52.50;36.20
53904;DHT22;39812;52.430;16.936;2022-08-18T14:01:56;52.50;36.20
53904;DHT22;39812;52.430;16.936;2022-08-18T14:04:22;51.60;36.00
53904;DHT22;39812;52.430;16.936;2022-08-18T14:06:52;50.40;36.60
53904;DHT22;39812;52.430;16.936;2022-08-18T14:09:19;50.70;36.80
53904;DHT22;39812;52.430;16.936;2022-08-18T14:11:45;52.00;36.20
53904;DHT22;39812;52.430;16.936;2022-08-18T14:14:12;52.80;35.90
53904;DHT22;39812;52.430;16.936;2022-08-18T14:16:37;52.70;36.00
53904;DHT22;39812;52.430;16.936;2022-08-18T14:19:03;51.80;36.30
53904;DHT22;39812;52.430;16.936;2022-08-18T14:21:49;51.00;36.70
53904;DHT22;39812;52.430;16.936;2022-08-18T14:24:35;50.70;36.70
53904;DHT22;39812;52.430;16.936;2022-08-18T14:27:28;50.10;36.90
53904;DHT22;39812;52.430;16.936;2022-08-18T14:29:55;50.20;36.60
53904;DHT22;39812;52.430;16.936;2022-08-18T14:32:22;49.60;37.00
53904;DHT22;39812;52.430;16.936;2022-08-18T14:34:48;49.50;37.30
53904;DHT22;39812;52.430;16.936;2022-08-18T14:37:14;49.60;37.20
53904;DHT22;39812;52.430;16.936;2022-08-18T14:39:39;49.60;37.20
53904;DHT22;39812;52.430;16.936;2022-08-18T14:42:05;50.10;36.70
53904;DHT22;39812;52.430;16.936;2022-08-18T14:44:31;50.40;36.50
53904;DHT22;39812;52.430;16.936;2022-08-18T14:46:56;50.90;36.40
53904;DHT22;39812;52.430;16.936;2022-08-18T14:49:23;51.40;35.80
53904;DHT22;39812;52.430;16.936;2022-08-18T14:51:48;50.90;35.50
53904;DHT22;39812;52.430;16.936;2022-08-18T14:54:14;50.90;35.90
53904;DHT22;39812;52.430;16.936;2022-08-18T14:56:40;50.20;35.90
53904;DHT22;39812;52.430;16.936;2022-08-18T14:59:05;49.90;36.20
53904;DHT22;39812;52.430;16.936;2022-08-18T15:01:33;50.40;36.10
53904;DHT22;39812;52.430;16.936;2022-08-18T15:03:58;52.10;35.80
53904;DHT22;39812;52.430;16.936;2022-08-18T15:06:24;50.10;35.80
53904;DHT22;39812;52.430;16.936;2022-08-18T15:08:49;48.90;37.10
53904;DHT22;39812;52.430;16.936;2022-08-18T15:11:15;48.70;37.40
53904;DHT22;39812;52.430;16.936;2022-08-18T15:13:42;48.70;37.60
53904;DHT22;39812;52.430;16.936;2022-08-18T15:16:08;48.80;37.60
53904;DHT22;39812;52.430;16.936;2022-08-18T15:18:38;49.20;37.30
53904;DHT22;39812;52.430;16.936;2022-08-18T15:21:03;49.20;37.00
53904;DHT22;39812;52.430;16.936;2022-08-18T15:23:48;50.10;37.00
53904;DHT22;39812;52.430;16.936;2022-08-18T15:26:32;49.90;36.90
53904;DHT22;39812;52.430;16.936;2022-08-18T15:28:57;48.70;37.50
53904;DHT22;39812;52.430;16.936;2022-08-18T15:31:23;47.80;37.70
53904;DHT22;39812;52.430;16.936;2022-08-18T15:33:50;48.10;37.90
53904;DHT22;39812;52.430;16.936;2022-08-18T15:36:15;48.50;38.00
53904;DHT22;39812;52.430;16.936;2022-08-18T15:38:46;47.80;37.80
53904;DHT22;39812;52.430;16.936;2022-08-18T15:41:36;47.00;38.30
53904;DHT22;39812;52.430;16.936;2022-08-18T15:44:04;47.00;38.60
53904;DHT22;39812;52.430;16.936;2022-08-18T15:46:32;46.20;39.00
53904;DHT22;39812;52.430;16.936;2022-08-18T15:48:59;45.70;39.30
53904;DHT22;39812;52.430;16.936;2022-08-18T15:51:25;45.10;39.90
53904;DHT22;39812;52.430;16.936;2022-08-18T15:53:50;43.90;41.00
53904;DHT22;39812;52.430;16.936;2022-08-18T15:56:19;43.00;41.30
53904;DHT22;39812;52.430;16.936;2022-08-18T15:58:45;41.60;42.40
53904;DHT22;39812;52.430;16.936;2022-08-18T16:01:13;41.70;42.80
53904;DHT22;39812;52.430;16.936;2022-08-18T16:03:39;42.10;42.90
53904;DHT22;39812;52.430;16.936;2022-08-18T16:06:05;42.20;42.90
53904;DHT22;39812;52.430;16.936;2022-08-18T16:08:31;42.30;42.80
53904;DHT22;39812;52.430;16.936;2022-08-18T16:10:57;41.30;43.20
53904;DHT22;39812;52.430;16.936;2022-08-18T16:13:23;40.50;43.80
53904;DHT22;39812;52.430;16.936;2022-08-18T16:15:53;39.20;45.10
53904;DHT22;39812;52.430;16.936;2022-08-18T16:18:18;37.40;47.10
53904;DHT22;39812;52.430;16.936;2022-08-18T16:20:47;36.50;48.80
53904;DHT22;39812;52.430;16.936;2022-08-18T16:23:13;35.70;50.10
53904;DHT22;39812;52.430;16.936;2022-08-18T16:25:40;35.00;51.10
53904;DHT22;39812;52.430;16.936;2022-08-18T16:28:06;34.80;51.40
53904;DHT22;39812;52.430;16.936;2022-08-18T16:30:32;34.40;52.00
53904;DHT22;39812;52.430;16.936;2022-08-18T16:33:03;34.10;52.30
53904;DHT22;39812;52.430;16.936;2022-08-18T16:35:30;34.30;53.10
53904;DHT22;39812;52.430;16.936;2022-08-18T16:38:01;33.80;53.40
53904;DHT22;39812;52.430;16.936;2022-08-18T16:40:27;33.60;54.30
53904;DHT22;39812;52.430;16.936;2022-08-18T16:42:54;33.60;54.60
53904;DHT22;39812;52.430;16.936;2022-08-18T16:45:20;33.80;54.50
53904;DHT22;39812;52.430;16.936;2022-08-18T16:47:45;34.20;53.90
53904;DHT22;39812;52.430;16.936;2022-08-18T16:50:13;34.70;53.40
53904;DHT22;39812;52.430;16.936;2022-08-18T16:52:40;35.10;52.60
53904;DHT22;39812;52.430;16.936;2022-08-18T16:55:08;35.50;52.30
53904;DHT22;39812;52.430;16.936;2022-08-18T16:57:37;36.10;51.50
53904;DHT22;39812;52.430;16.936;2022-08-18T17:00:23;36.30;50.80
53904;DHT22;39812;52.430;16.936;2022-08-18T17:03:08;36.10;50.90
53904;DHT22;39812;52.430;16.936;2022-08-18T17:06:00;36.20;50.90
53904;DHT22;39812;52.430;16.936;2022-08-18T17:08:26;35.60;51.50
53904;DHT22;39812;52.430;16.936;2022-08-18T17:10:52;34.80;52.10
53904;DHT22;39812;52.430;16.936;2022-08-18T17:13:18;34.10;53.40
53904;DHT22;39812;52.430;16.936;2022-08-18T17:15:51;33.50;54.20
53904;DHT22;39812;52.430;16.936;2022-08-18T17:18:16;33.00;55.30
53904;DHT22;39812;52.430;16.936;2022-08-18T17:20:44;32.50;56.50
53904;DHT22;39812;52.430;16.936;2022-08-18T17:23:09;32.00;57.30
53904;DHT22;39812;52.430;16.936;2022-08-18T17:25:35;31.70;58.10
53904;DHT22;39812;52.430;16.936;2022-08-18T17:28:01;31.30;58.70
53904;DHT22;39812;52.430;16.936;2022-08-18T17:30:30;31.10;59.50
53904;DHT22;39812;52.430;16.936;2022-08-18T17:33:02;30.80;60.10
53904;DHT22;39812;52.430;16.936;2022-08-18T17:35:44;30.60;60.70